Time;durP1;ratioP1;P1;durP2;ratioP2;P2;SDS_P1;SDS_P2;PMS_P1;PMS_P2;Temp;Humidity;BMP_temperature;BMP_pressure;BME280_temperature;BME280_humidity;BME280_pressure;Samples;Min_cycle;Max_cycle;Signal;HPM_P1;HPM_P2
2023/06/07 00:00:00;;;;;;;8.90;5.00;;;;;;;18.96;55.18;100944.95;112330;1231;61347;-48
2023/06/07 00:02:38;;;;;;;7.60;4.70;;;;;;;18.93;55.13;100942.05;112353;1231;63934;-49
2023/06/07 00:05:12;;;;;;;13.00;4.80;;;;;;;18.89;55.31;100946.21;112364;1231;57346;-49
2023/06/07 00:07:40;;;;;;;8.50;5.40;;;;;;;18.86;55.56;100945.70;112336;1231;57849;-49
2023/06/07 00:10:08;;;;;;;8.00;5.10;;;;;;;18.81;55.57;100944.90;112373;1231;64090;-49
2023/06/07 00:12:36;;;;;;;8.30;4.80;;;;;;;18.77;55.61;100946.52;112366;1231;61715;-48
2023/06/07 00:15:04;;;;;;;7.30;5.00;;;;;;;18.72;55.64;100948.80;112336;1231;63761;-50
2023/06/07 00:17:32;;;;;;;8.00;5.40;;;;;;;18.67;55.83;100947.65;112372;1231;57394;-48
2023/06/07 00:19:59;;;;;;;8.10;5.00;;;;;;;18.62;56.01;100946.51;112355;1231;57349;-49
2023/06/07 00:22:25;;;;;;;7.20;4.90;;;;;;;18.63;56.04;100948.91;112344;1232;64284;-48
2023/06/07 00:24:52;;;;;;;9.50;5.00;;;;;;;18.65;56.11;100948.15;112350;1234;61355;-48
2023/06/07 00:27:19;;;;;;;7.40;4.70;;;;;;;18.67;56.19;100948.20;112330;1231;64039;-48
2023/06/07 00:29:46;;;;;;;8.20;5.50;;;;;;;18.70;56.21;100949.77;112351;1231;57591;-49
2023/06/07 00:32:12;;;;;;;7.20;4.60;;;;;;;18.72;55.97;100947.94;112125;1231;57432;-48
2023/06/07 00:34:39;;;;;;;8.10;5.00;;;;;;;18.73;55.70;100948.42;112345;1231;63970;-48
2023/06/07 00:37:06;;;;;;;9.00;5.10;;;;;;;18.73;55.70;100945.56;112411;1230;61362;-49
2023/06/07 00:39:35;;;;;;;8.10;5.00;;;;;;;18.72;55.96;100942.27;112347;1231;64212;-49
2023/06/07 00:42:02;;;;;;;9.40;5.80;;;;;;;18.71;56.02;100945.46;112376;1230;57567;-50
2023/06/07 00:44:29;;;;;;;7.10;4.70;;;;;;;18.67;56.04;100944.65;112161;1232;57580;-48
2023/06/07 00:46:56;;;;;;;8.20;5.00;;;;;;;18.64;56.17;100945.08;112081;1231;62948;-48
2023/06/07 00:49:22;;;;;;;8.70;5.00;;;;;;;18.61;56.51;100942.37;112332;1231;57511;-48
2023/06/07 00:51:49;;;;;;;8.90;5.00;;;;;;;18.62;56.64;100942.52;112353;1232;62649;-48
2023/06/07 00:54:17;;;;;;;6.60;4.60;;;;;;;18.64;56.49;100944.70;112177;1231;58217;-48
2023/06/07 00:56:49;;;;;;;11.10;5.70;;;;;;;18.65;56.28;100945.98;112052;1237;57295;-48
2023/06/07 00:59:25;;;;;;;8.30;5.40;;;;;;;18.65;56.00;100944.98;112090;1231;62993;-48
2023/06/07 01:01:51;;;;;;;8.20;5.90;;;;;;;18.64;55.93;100944.09;112088;1236;61338;-48
2023/06/07 01:04:20;;;;;;;8.00;5.60;;;;;;;18.63;55.84;100943.41;112351;1231;62530;-49
2023/06/07 01:06:47;;;;;;;8.90;5.20;;;;;;;18.62;55.71;100944.81;112120;1237;57468;-48
2023/06/07 01:09:16;;;;;;;7.50;5.20;;;;;;;18.59;55.69;100948.66;112350;1234;57567;-48
2023/06/07 01:11:45;;;;;;;10.50;5.30;;;;;;;18.54;55.83;100949.67;112066;1231;62969;-49
2023/06/07 01:14:11;;;;;;;9.20;5.10;;;;;;;18.51;55.90;100950.94;112122;1231;61837;-49
2023/06/07 01:16:39;;;;;;;9.40;5.70;;;;;;;18.48;56.15;100948.85;112030;1231;63756;-49
2023/06/07 01:19:05;;;;;;;9.10;5.10;;;;;;;18.46;56.08;100949.52;112011;1231;57541;-48
2023/06/07 01:21:33;;;;;;;7.80;5.10;;;;;;;18.44;56.01;100950.54;112035;1231;57373;-47
2023/06/07 01:24:00;;;;;;;8.40;4.90;;;;;;;18.43;56.07;100949.23;112118;1236;64043;-47
2023/06/07 01:26:28;;;;;;;9.30;5.60;;;;;;;18.41;56.21;100950.48;112349;1232;61344;-55
2023/06/07 01:28:55;;;;;;;7.90;5.40;;;;;;;18.37;56.46;100947.61;112031;1231;63640;-56
2023/06/07 01:31:22;;;;;;;8.20;5.20;;;;;;;18.35;56.53;100947.17;112033;1231;57938;-54
2023/06/07 01:33:52;;;;;;;7.80;5.50;;;;;;;18.35;56.60;100951.50;112129;1232;57360;-55
2023/06/07 01:36:19;;;;;;;10.80;4.90;;;;;;;18.33;56.95;100947.09;112141;1231;63058;-56
2023/06/07 01:38:45;;;;;;;7.30;5.00;;;;;;;18.30;57.12;100950.35;112042;1231;60087;-56
2023/06/07 01:41:14;;;;;;;9.20;5.90;;;;;;;18.28;56.77;100948.08;112006;1232;63891;-56
2023/06/07 01:43:41;;;;;;;6.60;4.40;;;;;;;18.25;56.86;100947.15;112096;1237;57767;-55
2023/06/07 01:46:07;;;;;;;8.20;4.80;;;;;;;18.20;56.75;100947.31;112091;1231;57756;-55
2023/06/07 01:48:34;;;;;;;6.60;4.90;;;;;;;18.19;56.83;100947.67;112346;1232;63969;-55
2023/06/07 01:51:00;;;;;;;8.60;5.20;;;;;;;18.21;56.71;100945.88;112363;1231;60349;-55
2023/06/07 01:55:10;;;;;;;9.20;5.30;;;;;;;18.07;56.93;100945.48;102030;1292;600208;-61
2023/06/07 01:57:46;;;;;;;8.40;5.30;;;;;;;18.17;56.11;100948.34;108361;1266;57285;-59
2023/06/07 02:00:42;;;;;;;8.50;4.80;;;;;;;18.14;55.88;100952.72;108247;1266;57925;-60
2023/06/07 02:03:14;;;;;;;8.80;5.00;;;;;;;18.10;55.64;100948.54;108409;1266;62074;-61
2023/06/07 02:05:47;;;;;;;8.20;4.90;;;;;;;18.08;55.58;100948.61;108352;1272;61373;-61
2023/06/07 02:08:24;;;;;;;6.60;4.80;;;;;;;18.05;55.73;100948.86;108139;1266;276573;-57
2023/06/07 02:10:52;;;;;;;7.10;4.80;;;;;;;18.02;55.88;100947.27;108333;1263;57327;-58
2023/06/07 02:13:20;;;;;;;7.30;4.90;;;;;;;17.97;55.83;100950.55;108488;1269;57327;-56
2023/06/07 02:15:48;;;;;;;8.20;5.30;;;;;;;17.92;55.49;100958.59;108485;1263;71875;-58
2023/06/07 02:18:18;;;;;;;7.30;5.00;;;;;;;17.83;55.44;100955.02;108545;1263;61557;-58
2023/06/07 02:20:46;;;;;;;8.20;4.90;;;;;;;17.77;55.54;100956.00;108523;1266;62424;-59
2023/06/07 02:23:14;;;;;;;8.00;4.70;;;;;;;17.73;55.63;100956.24;108455;1264;57997;-59
2023/06/07 02:25:41;;;;;;;8.30;5.00;;;;;;;17.70;55.67;100953.52;108581;1263;57416;-58
2023/06/07 02:28:09;;;;;;;7.00;4.90;;;;;;;17.71;55.80;100959.73;108435;1263;64636;-58
2023/06/07 02:30:36;;;;;;;7.20;4.60;;;;;;;17.77;55.77;100967.85;108485;1263;61375;-56
2023/06/07 02:33:05;;;;;;;7.30;4.70;;;;;;;17.80;55.58;100965.44;108460;1263;62470;-58
2023/06/07 02:35:32;;;;;;;13.20;4.80;;;;;;;17.81;55.79;100964.23;108568;1263;57356;-56
2023/06/07 02:38:01;;;;;;;8.10;4.10;;;;;;;17.83;55.87;100959.57;108542;1263;57439;-59
2023/06/07 02:40:29;;;;;;;7.90;4.50;;;;;;;17.84;55.38;100958.80;108521;1266;62902;-56
2023/06/07 02:42:58;;;;;;;7.40;4.90;;;;;;;17.85;55.12;100957.66;108420;1266;61325;-57
2023/06/07 02:45:25;;;;;;;7.30;4.70;;;;;;;17.83;54.86;100951.94;108446;1264;62531;-57
2023/06/07 02:47:53;;;;;;;9.10;4.70;;;;;;;17.83;54.41;100952.15;108520;1263;57432;-57
2023/06/07 02:50:24;;;;;;;6.90;4.40;;;;;;;17.85;54.52;100955.38;108348;1263;57662;-58
2023/06/07 02:52:53;;;;;;;7.50;4.90;;;;;;;17.85;54.63;100949.90;108391;1263;63021;-57
2023/06/07 02:55:20;;;;;;;7.10;5.20;;;;;;;17.83;54.66;100951.62;108455;1263;60301;-57
2023/06/07 02:57:48;;;;;;;7.50;4.60;;;;;;;17.82;54.66;100956.52;108497;1264;63737;-57
2023/06/07 03:00:16;;;;;;;7.10;4.50;;;;;;;17.81;54.66;100958.00;108489;1263;57711;-58
2023/06/07 03:02:52;;;;;;;7.20;4.60;;;;;;;17.82;54.87;100956.17;108462;1265;57592;-58
2023/06/07 03:05:20;;;;;;;10.40;5.10;;;;;;;17.83;55.19;100952.48;108413;1266;62889;-57
2023/06/07 03:07:50;;;;;;;6.60;4.50;;;;;;;17.91;55.17;100948.17;108449;1263;60154;-58
2023/06/07 03:10:18;;;;;;;8.60;4.90;;;;;;;18.01;55.22;100947.70;108477;1265;62434;-62
2023/06/07 03:12:46;;;;;;;8.90;4.70;;;;;;;18.07;55.37;100952.05;108395;1267;57494;-58
2023/06/07 03:15:14;;;;;;;6.40;4.50;;;;;;;18.12;55.67;100950.67;108480;1264;57708;-57
2023/06/07 03:17:43;;;;;;;6.40;4.30;;;;;;;18.16;55.56;100951.00;108450;1264;64121;-59
2023/06/07 03:20:11;;;;;;;6.20;4.50;;;;;;;18.17;55.62;100950.81;108448;1270;61324;-58
2023/06/07 03:22:39;;;;;;;8.40;4.60;;;;;;;18.22;55.83;100947.35;108453;1265;64187;-59
2023/06/07 03:25:09;;;;;;;9.20;4.70;;;;;;;18.27;55.91;100954.09;108440;1269;57686;-58
2023/06/07 03:27:36;;;;;;;8.10;5.00;;;;;;;18.30;55.96;100965.86;108458;1263;59009;-59
2023/06/07 03:30:12;;;;;;;7.90;4.40;;;;;;;18.28;55.03;100984.73;107967;1272;71884;-59
2023/06/07 03:32:43;;;;;;;8.90;4.90;;;;;;;18.25;54.92;100974.53;104360;1267;61776;-59
2023/06/07 03:35:11;;;;;;;7.20;4.90;;;;;;;18.25;55.28;100970.83;108411;1267;63700;-58
2023/06/07 03:37:39;;;;;;;6.60;4.30;;;;;;;18.25;55.14;100966.34;108480;1266;57678;-58
2023/06/07 03:40:08;;;;;;;8.40;5.10;;;;;;;18.28;55.09;100966.55;107626;1269;57632;-59
2023/06/07 03:42:36;;;;;;;6.40;4.20;;;;;;;18.32;55.23;100962.67;108464;1266;62852;-59
2023/06/07 03:45:04;;;;;;;7.60;4.90;;;;;;;18.36;54.76;100963.96;108358;1264;61362;-59
2023/06/07 03:47:32;;;;;;;7.00;4.80;;;;;;;18.41;54.09;100968.48;108453;1266;64788;-58
2023/06/07 03:50:01;;;;;;;7.10;4.70;;;;;;;18.40;53.89;100965.73;108418;1266;59097;-60
2023/06/07 03:52:30;;;;;;;10.50;4.20;;;;;;;18.39;54.07;100959.58;108451;1263;57804;-58
2023/06/07 03:54:58;;;;;;;7.80;4.70;;;;;;;18.42;53.99;100959.70;108442;1263;64102;-59
2023/06/07 03:57:26;;;;;;;10.90;4.50;;;;;;;18.44;54.09;100959.93;108464;1264;61359;-58
2023/06/07 03:59:53;;;;;;;8.30;4.60;;;;;;;18.48;54.22;100961.38;108461;1263;64169;-58
2023/06/07 04:02:21;;;;;;;8.10;4.60;;;;;;;18.50;53.81;100960.92;108473;1266;57466;-58
2023/06/07 04:04:49;;;;;;;6.90;4.40;;;;;;;18.53;53.56;100964.19;108468;1263;59089;-58
2023/06/07 04:07:16;;;;;;;7.90;4.60;;;;;;;18.55;52.97;100965.00;108485;1266;64056;-58
2023/06/07 04:09:44;;;;;;;7.30;4.20;;;;;;;18.58;52.91;100963.98;108314;1272;61400;-58
2023/06/07 04:12:14;;;;;;;7.20;4.10;;;;;;;18.64;53.19;100967.66;108438;1264;62636;-58
2023/06/07 04:14:41;;;;;;;7.10;4.50;;;;;;;18.73;52.95;100968.52;108396;1265;57845;-58
2023/06/07 04:17:08;;;;;;;7.50;4.40;;;;;;;18.83;52.69;100968.18;108497;1263;57669;-58
2023/06/07 04:19:37;;;;;;;8.00;4.00;;;;;;;18.93;52.40;100971.02;108419;1263;64107;-58
2023/06/07 04:22:16;;;;;;;8.20;4.80;;;;;;;19.01;51.91;100970.33;108465;1267;61370;-58
2023/06/07 04:24:46;;;;;;;8.20;4.40;;;;;;;19.10;51.59;100969.61;108357;1266;63105;-58
2023/06/07 04:27:18;;;;;;;6.50;4.00;;;;;;;19.19;51.39;100970.05;108445;1266;57573;-58
2023/06/07 04:29:48;;;;;;;9.00;4.80;;;;;;;19.28;51.25;100968.70;108431;1263;57875;-58
2023/06/07 04:32:19;;;;;;;8.40;4.20;;;;;;;19.39;51.07;100970.39;108397;1263;62826;-58
2023/06/07 04:34:48;;;;;;;9.70;4.30;;;;;;;19.49;51.09;100969.10;108412;1264;61283;-58
2023/06/07 04:37:17;;;;;;;8.30;3.90;;;;;;;19.60;51.05;100965.79;108505;1264;63798;-59
2023/06/07 04:39:48;;;;;;;7.90;4.30;;;;;;;19.72;50.90;100969.36;108452;1264;60060;-58
2023/06/07 04:42:16;;;;;;;7.40;3.90;;;;;;;19.83;51.15;100970.28;108454;1264;57438;-57
2023/06/07 04:44:45;;;;;;;12.90;4.70;;;;;;;19.94;50.81;100968.20;108438;1267;62991;-58
2023/06/07 04:47:17;;;;;;;6.60;3.90;;;;;;;20.06;50.61;100968.99;108448;1266;61344;-57
2023/06/07 04:49:46;;;;;;;10.90;4.20;;;;;;;20.20;50.44;100967.79;108299;1267;63701;-58
2023/06/07 04:52:14;;;;;;;9.00;4.40;;;;;;;20.33;49.96;100969.02;108463;1263;57905;-58
2023/06/07 04:54:46;;;;;;;8.70;4.10;;;;;;;20.47;49.91;100965.66;108427;1268;57400;-57
2023/06/07 04:57:15;;;;;;;6.60;3.60;;;;;;;20.62;49.46;100964.33;108737;1260;62909;-58
2023/06/07 04:59:43;;;;;;;7.70;4.30;;;;;;;20.76;48.92;100965.73;105199;1260;61365;-57
2023/06/07 05:02:16;;;;;;;6.40;4.10;;;;;;;20.91;48.90;100965.30;108691;1261;63873;-58
2023/06/07 05:04:44;;;;;;;7.80;4.30;;;;;;;21.06;48.10;100967.80;107863;1260;60371;-58
2023/06/07 05:07:13;;;;;;;10.40;3.80;;;;;;;21.21;47.54;100969.50;104602;1263;59276;-57
2023/06/07 05:09:45;;;;;;;8.40;3.80;;;;;;;21.29;47.18;100972.02;108608;1260;64301;-58
2023/06/07 05:12:14;;;;;;;6.80;4.10;;;;;;;21.46;46.68;100971.04;108631;1260;61921;-57
2023/06/07 05:14:41;;;;;;;7.30;4.20;;;;;;;21.63;46.41;100969.34;108636;1261;64336;-58
2023/06/07 05:17:19;;;;;;;7.30;3.60;;;;;;;21.76;46.09;100967.98;108794;1257;59351;-56
2023/06/07 05:19:47;;;;;;;6.00;3.20;;;;;;;21.89;44.67;100968.37;108771;1257;58070;-57
2023/06/07 05:22:14;;;;;;;7.70;3.70;;;;;;;22.03;44.11;100969.54;108741;1258;64560;-58
2023/06/07 05:24:42;;;;;;;7.90;3.60;;;;;;;22.17;43.22;100967.21;108847;1257;60332;-55
2023/06/07 05:27:09;;;;;;;7.50;3.60;;;;;;;22.32;42.81;100964.68;108832;1257;66279;-57
2023/06/07 05:29:37;;;;;;;5.40;2.90;;;;;;;22.48;41.60;100970.64;108805;1258;59840;-57
2023/06/07 05:32:06;;;;;;;6.40;3.10;;;;;;;22.61;39.97;100968.31;108805;1260;58703;-60
2023/06/07 05:34:35;;;;;;;6.40;2.60;;;;;;;22.74;38.82;100969.79;108717;1257;64706;-65
2023/06/07 05:37:04;;;;;;;6.00;3.10;;;;;;;22.86;37.31;100973.43;108913;1263;60385;-60
2023/06/07 05:39:32;;;;;;;5.70;3.10;;;;;;;22.97;36.35;100972.73;108816;1258;63756;-59
2023/06/07 05:42:00;;;;;;;6.00;2.20;;;;;;;23.09;36.59;100971.96;108878;1257;57635;-58
2023/06/07 05:44:27;;;;;;;6.50;2.80;;;;;;;23.18;35.73;100973.17;108794;1263;58448;-65
2023/06/07 05:46:55;;;;;;;6.20;3.10;;;;;;;23.25;35.46;100975.11;108826;1257;64906;-64
2023/06/07 05:49:23;;;;;;;8.90;3.70;;;;;;;23.33;35.45;100975.02;108817;1257;60237;-61
2023/06/07 05:51:51;;;;;;;6.20;3.10;;;;;;;23.40;35.51;100978.70;108805;1256;64159;-59
2023/06/07 05:54:19;;;;;;;7.10;3.00;;;;;;;23.45;35.65;100977.27;108845;1260;57761;-60
2023/06/07 05:56:46;;;;;;;6.50;2.80;;;;;;;23.53;35.74;100979.52;108902;1256;57604;-64
2023/06/07 05:59:14;;;;;;;8.80;3.00;;;;;;;23.61;35.66;100978.64;108828;1258;62821;-61
2023/06/07 06:01:44;;;;;;;8.10;3.20;;;;;;;23.70;35.66;100980.78;108894;1258;62192;-61
2023/06/07 06:04:12;;;;;;;6.90;2.70;;;;;;;23.73;35.66;100978.04;108825;1263;63848;-62
2023/06/07 06:06:40;;;;;;;6.10;3.00;;;;;;;23.80;35.69;100974.55;108777;1257;58288;-61
2023/06/07 06:09:07;;;;;;;6.80;2.90;;;;;;;23.89;35.21;100976.70;105747;1262;60399;-61
2023/06/07 06:11:35;;;;;;;6.00;2.90;;;;;;;24.06;34.60;100978.04;104916;1261;64904;-61
2023/06/07 06:14:02;;;;;;;6.00;3.10;;;;;;;24.16;34.39;100976.08;105006;1260;61592;-65
2023/06/07 06:16:30;;;;;;;5.20;2.50;;;;;;;24.23;34.69;100977.14;104964;1263;63835;-61
2023/06/07 06:18:57;;;;;;;5.30;3.10;;;;;;;24.34;34.60;100979.80;104801;1263;60552;-61
2023/06/07 06:21:25;;;;;;;6.90;2.90;;;;;;;24.44;34.40;100979.08;108754;1263;58447;-61
2023/06/07 06:23:52;;;;;;;7.20;2.80;;;;;;;24.54;34.56;100979.00;108725;1257;63711;-60
2023/06/07 06:26:21;;;;;;;8.00;2.90;;;;;;;24.67;34.26;100977.50;108800;1257;61764;-61
2023/06/07 06:28:49;;;;;;;6.30;2.80;;;;;;;24.80;34.07;100974.84;108750;1257;62540;-62
2023/06/07 06:31:16;;;;;;;5.80;3.20;;;;;;;24.92;33.94;100974.76;108758;1258;58219;-61
2023/06/07 06:33:44;;;;;;;7.90;3.20;;;;;;;25.04;33.61;100979.34;105200;1261;60444;-63
2023/06/07 06:36:12;;;;;;;9.50;4.00;;;;;;;25.13;33.18;100981.14;108812;1256;64975;-61
2023/06/07 06:38:40;;;;;;;5.60;2.60;;;;;;;25.20;33.79;100979.63;108829;1257;71150;-58
2023/06/07 06:41:09;;;;;;;6.70;2.80;;;;;;;25.30;33.60;100977.95;108785;1258;62448;-59
2023/06/07 06:43:36;;;;;;;8.80;3.20;;;;;;;25.41;33.14;100977.84;108801;1257;59062;-59
2023/06/07 06:46:04;;;;;;;5.50;3.00;;;;;;;25.47;32.40;100976.48;108995;1260;58089;-64
2023/06/07 06:48:32;;;;;;;7.00;2.90;;;;;;;25.50;32.14;100977.89;109031;1254;63658;-59
2023/06/07 06:50:59;;;;;;;6.30;2.80;;;;;;;25.52;32.31;100980.42;109157;1254;61467;-61
2023/06/07 06:53:27;;;;;;;5.80;2.50;;;;;;;25.50;32.17;100983.60;109123;1254;62549;-61
2023/06/07 06:55:54;;;;;;;5.60;2.60;;;;;;;25.52;32.10;100982.60;109170;1254;58555;-61
2023/06/07 06:58:23;;;;;;;6.80;2.80;;;;;;;25.54;32.26;100986.13;109008;1254;58494;-62
2023/06/07 07:00:50;;;;;;;5.60;2.80;;;;;;;25.55;32.01;100988.70;109070;1254;63629;-60
2023/06/07 07:03:18;;;;;;;7.40;3.10;;;;;;;25.56;31.76;100988.16;109171;1254;61291;-58
2023/06/07 07:05:45;;;;;;;5.60;2.70;;;;;;;25.60;31.42;100989.23;109201;1254;63719;-60
2023/06/07 07:08:13;;;;;;;5.30;2.40;;;;;;;25.70;32.17;100989.91;108966;1257;60185;-59
2023/06/07 07:10:40;;;;;;;5.90;2.70;;;;;;;25.82;31.94;100990.02;108923;1254;58533;-59
2023/06/07 07:13:07;;;;;;;6.50;2.90;;;;;;;25.92;31.75;100988.02;109138;1254;64987;-59
2023/06/07 07:15:36;;;;;;;5.70;2.80;;;;;;;25.98;31.50;100988.87;109109;1254;61351;-59
2023/06/07 07:18:04;;;;;;;7.30;3.20;;;;;;;26.02;32.04;100989.89;109067;1254;62433;-59
2023/06/07 07:20:32;;;;;;;8.20;3.10;;;;;;;26.07;31.47;100991.87;109161;1254;58561;-59
2023/06/07 07:23:01;;;;;;;6.10;2.70;;;;;;;26.03;31.32;100996.28;109147;1254;58202;-60
2023/06/07 07:25:29;;;;;;;6.70;3.00;;;;;;;26.02;31.60;100993.46;109170;1254;65356;-56
2023/06/07 07:27:57;;;;;;;11.10;3.40;;;;;;;26.11;31.53;100991.38;109159;1254;61358;-57
2023/06/07 07:30:24;;;;;;;8.60;2.80;;;;;;;26.17;31.85;100990.68;109126;1254;62482;-56
2023/06/07 07:32:53;;;;;;;8.50;3.20;;;;;;;26.22;31.91;100988.39;109224;1253;58265;-56
2023/06/07 07:35:20;;;;;;;6.00;2.70;;;;;;;26.26;31.43;100992.20;109089;1253;58378;-55
2023/06/07 07:37:49;;;;;;;9.70;3.00;;;;;;;26.26;32.69;100993.98;109220;1254;64897;-55
2023/06/07 07:40:17;;;;;;;7.00;2.60;;;;;;;26.28;31.36;100996.77;109239;1253;61342;-59
2023/06/07 07:42:44;;;;;;;11.70;3.00;;;;;;;26.31;32.54;100997.58;109154;1254;64232;-60
2023/06/07 07:45:12;;;;;;;8.40;3.20;;;;;;;26.34;32.87;100999.03;109076;1254;58783;-59
2023/06/07 07:47:40;;;;;;;9.50;2.90;;;;;;;26.38;33.12;101000.84;109257;1254;58220;-60
2023/06/07 07:50:07;;;;;;;6.30;2.30;;;;;;;26.42;33.26;101000.05;109139;1254;65294;-59
2023/06/07 07:52:35;;;;;;;7.80;2.80;;;;;;;26.43;32.75;101001.03;109148;1252;61313;-60
2023/06/07 07:55:04;;;;;;;7.90;3.30;;;;;;;26.40;32.65;100999.59;109098;1254;64423;-59
2023/06/07 07:57:32;;;;;;;5.90;3.30;;;;;;;26.35;32.34;101002.80;109178;1253;58487;-60
2023/06/07 07:59:59;;;;;;;8.30;2.90;;;;;;;26.32;32.75;101001.23;109138;1254;58345;-61
2023/06/07 08:02:27;;;;;;;5.40;2.70;;;;;;;26.33;32.96;101003.04;109041;1253;63634;-59
2023/06/07 08:04:55;;;;;;;7.60;3.00;;;;;;;26.36;32.98;101002.88;108944;1254;61438;-60
2023/06/07 08:07:22;;;;;;;5.40;2.80;;;;;;;26.39;32.91;101006.73;109156;1253;75258;-63
2023/06/07 08:09:50;;;;;;;5.40;2.60;;;;;;;26.43;32.85;101007.88;109143;1254;58750;-59
2023/06/07 08:12:17;;;;;;;6.20;3.30;;;;;;;26.48;33.01;101004.98;109221;1254;58554;-59
2023/06/07 08:14:45;;;;;;;11.10;3.00;;;;;;;26.53;33.51;101004.90;109168;1254;63736;-62
2023/06/07 08:17:12;;;;;;;8.40;3.20;;;;;;;26.55;32.93;101002.61;109153;1254;60116;-61
2023/06/07 08:19:40;;;;;;;6.10;2.90;;;;;;;26.54;32.12;101005.81;109133;1253;64440;-62
2023/06/07 08:22:08;;;;;;;6.10;2.90;;;;;;;26.53;32.41;101009.83;109211;1253;58738;-62
2023/06/07 08:24:35;;;;;;;12.30;3.10;;;;;;;26.55;31.58;101009.67;109183;1254;58210;-59
2023/06/07 08:27:03;;;;;;;9.20;3.00;;;;;;;26.62;31.53;101010.96;109057;1252;64922;-61
2023/06/07 08:29:31;;;;;;;16.90;5.20;;;;;;;26.76;31.18;101009.61;109111;1253;60129;-63
2023/06/07 08:31:58;;;;;;;15.40;3.10;;;;;;;26.71;30.64;101006.55;109109;1254;73234;-60
2023/06/07 08:34:29;;;;;;;10.30;3.40;;;;;;;26.69;30.36;101004.78;109067;1253;62267;-63
2023/06/07 08:37:01;;;;;;;8.30;3.10;;;;;;;26.68;30.52;101009.60;109142;1254;58357;-63
2023/06/07 08:39:28;;;;;;;7.90;2.90;;;;;;;26.71;30.65;101008.64;109096;1254;65309;-61
2023/06/07 08:41:56;;;;;;;9.50;2.70;;;;;;;26.77;31.23;101003.77;109097;1254;60316;-64
2023/06/07 08:44:23;;;;;;;9.70;2.80;;;;;;;26.86;31.01;101003.61;109163;1254;62576;-62
2023/06/07 08:46:51;;;;;;;6.10;2.80;;;;;;;26.97;30.52;101001.86;109126;1253;62187;-64
2023/06/07 08:49:19;;;;;;;5.70;2.60;;;;;;;27.04;30.23;101000.82;109161;1254;58305;-62
2023/06/07 08:51:47;;;;;;;7.90;2.70;;;;;;;27.07;30.08;101000.01;109098;1254;65360;-61
2023/06/07 08:54:18;;;;;;;4.70;2.50;;;;;;;27.12;30.54;100998.89;109150;1253;61356;-61
2023/06/07 08:56:45;;;;;;;5.30;2.30;;;;;;;27.21;30.22;101004.11;109043;1253;63839;-63
2023/06/07 08:59:13;;;;;;;5.30;2.60;;;;;;;27.29;28.43;101003.00;109131;1254;60770;-63
2023/06/07 09:01:41;;;;;;;7.30;2.40;;;;;;;27.38;28.61;101004.48;109061;1253;58547;-62
2023/06/07 09:04:08;;;;;;;5.30;2.60;;;;;;;27.49;28.77;101001.70;109125;1253;65584;-62
2023/06/07 09:06:36;;;;;;;6.40;2.60;;;;;;;27.59;28.78;100995.01;109042;1255;71200;-62
2023/06/07 09:09:04;;;;;;;5.80;2.80;;;;;;;27.63;28.34;100994.96;109169;1253;66420;-61
2023/06/07 09:11:32;;;;;;;8.50;3.20;;;;;;;27.67;29.11;100993.48;109181;1254;58220;-67
2023/06/07 09:14:00;;;;;;;6.20;2.60;;;;;;;27.70;30.05;100991.04;108974;1256;58633;-62
2023/06/07 09:16:28;;;;;;;8.70;2.90;;;;;;;27.70;30.58;100989.13;109076;1253;63632;-63
2023/06/07 09:18:56;;;;;;;6.00;3.20;;;;;;;27.70;30.48;100986.55;109123;1254;60109;-65
2023/06/07 09:21:27;;;;;;;8.50;3.10;;;;;;;27.73;30.69;100986.69;109153;1253;63842;-64
2023/06/07 09:23:59;;;;;;;5.40;2.60;;;;;;;27.78;30.73;100982.54;109118;1254;58384;-64
2023/06/07 09:26:37;;;;;;;6.30;3.20;;;;;;;27.82;30.60;100984.10;109121;1253;59603;-64
2023/06/07 09:29:07;;;;;;;6.30;2.40;;;;;;;27.84;31.24;100984.11;109138;1254;63760;-62
2023/06/07 09:31:34;;;;;;;7.30;2.60;;;;;;;27.83;31.07;100983.21;109159;1254;61411;-63
2023/06/07 09:34:22;;;;;;;6.80;2.80;;;;;;;27.84;31.20;100980.43;109162;1254;63755;-63
2023/06/07 09:36:50;;;;;;;7.10;3.50;;;;;;;27.87;30.76;100980.52;109055;1254;58197;-67
2023/06/07 09:39:23;;;;;;;5.70;2.90;;;;;;;27.90;31.29;100980.80;109188;1253;58374;-66
2023/06/07 09:41:51;;;;;;;6.70;2.90;;;;;;;27.94;30.59;100978.58;109135;1253;65012;-63
2023/06/07 09:44:22;;;;;;;9.20;3.20;;;;;;;27.96;31.41;100977.59;109079;1253;61371;-62
2023/06/07 09:46:51;;;;;;;7.10;3.10;;;;;;;28.00;32.14;100980.47;109105;1254;62428;-62
2023/06/07 09:49:34;;;;;;;5.60;3.10;;;;;;;28.06;31.39;100981.41;109043;1253;58843;-62
2023/06/07 09:52:05;;;;;;;8.30;3.30;;;;;;;28.08;31.12;100976.18;109053;1254;58235;-63
2023/06/07 09:54:39;;;;;;;9.70;3.10;;;;;;;28.11;30.90;100977.23;109087;1254;63750;-63
2023/06/07 09:57:08;;;;;;;8.30;3.10;;;;;;;28.11;30.75;100978.30;109171;1254;61319;-65
2023/06/07 09:59:37;;;;;;;9.00;3.20;;;;;;;28.08;30.83;100977.29;109069;1253;63910;-59
2023/06/07 10:02:23;;;;;;;10.10;3.20;;;;;;;28.06;30.90;100975.98;109195;1254;58352;-58
2023/06/07 10:04:53;;;;;;;8.20;3.10;;;;;;;28.06;30.53;100978.64;109160;1253;59252;-59
2023/06/07 10:07:29;;;;;;;9.10;3.10;;;;;;;28.05;30.28;100979.70;109194;1253;64989;-59
2023/06/07 10:09:59;;;;;;;9.50;3.30;;;;;;;28.05;30.25;100972.17;109107;1253;61895;-59
2023/06/07 10:12:28;;;;;;;7.50;3.00;;;;;;;28.06;30.66;100969.05;109067;1253;63851;-58
2023/06/07 10:14:55;;;;;;;6.00;3.00;;;;;;;28.08;30.31;100967.94;109291;1252;59035;-59
2023/06/07 10:17:28;;;;;;;9.20;3.20;;;;;;;28.09;30.52;100965.68;109107;1254;59553;-61
2023/06/07 10:19:59;;;;;;;5.80;3.10;;;;;;;28.11;29.80;100964.27;109220;1253;63835;-58
2023/06/07 10:22:30;;;;;;;6.60;3.00;;;;;;;28.11;29.62;100964.77;109216;1252;70799;-61
2023/06/07 10:25:02;;;;;;;8.70;3.10;;;;;;;28.10;29.72;100962.64;109081;1253;63768;-61
2023/06/07 10:27:36;;;;;;;5.20;2.80;;;;;;;28.13;30.01;100963.44;109240;1253;58503;-63
2023/06/07 10:30:12;;;;;;;6.70;3.00;;;;;;;28.17;29.87;100962.20;109123;1253;58495;-60
2023/06/07 10:32:39;;;;;;;6.10;3.10;;;;;;;28.23;29.56;100958.41;109297;1253;65458;-60
2023/06/07 10:35:11;;;;;;;7.40;3.00;;;;;;;28.29;29.56;100958.05;109240;1253;61350;-61
2023/06/07 10:37:42;;;;;;;5.80;2.70;;;;;;;28.32;29.44;100959.66;108468;1254;62433;-60
2023/06/07 10:40:10;;;;;;;5.90;2.60;;;;;;;28.32;29.45;100959.75;105204;1259;60904;-61
2023/06/07 10:42:38;;;;;;;5.20;2.80;;;;;;;28.28;29.17;100954.84;105140;1257;60548;-62
2023/06/07 10:45:06;;;;;;;6.10;2.70;;;;;;;28.27;28.52;100951.61;109297;1253;63734;-61
2023/06/07 10:47:34;;;;;;;7.20;2.90;;;;;;;28.26;28.55;100947.42;109260;1253;61382;-57
2023/06/07 10:50:01;;;;;;;5.50;2.70;;;;;;;28.26;28.86;100949.25;109227;1253;63879;-58
2023/06/07 10:52:29;;;;;;;5.40;2.80;;;;;;;28.26;28.71;100947.63;109190;1253;58582;-58
2023/06/07 10:54:56;;;;;;;5.90;2.30;;;;;;;28.28;28.61;100949.36;109211;1254;58434;-57
2023/06/07 10:57:35;;;;;;;6.00;2.40;;;;;;;28.30;28.66;100951.90;109295;1253;63631;-59
2023/06/07 11:00:31;;;;;;;6.50;2.40;;;;;;;28.33;27.87;100946.80;109313;1254;61862;-59
2023/06/07 11:03:05;;;;;;;6.00;2.60;;;;;;;28.36;27.66;100945.05;109242;1254;62462;-58
2023/06/07 11:05:57;;;;;;;5.90;2.20;;;;;;;28.37;27.79;100942.41;109297;1253;58386;-58
2023/06/07 11:08:27;;;;;;;8.50;2.40;;;;;;;28.42;28.38;100943.48;109306;1253;58335;-56
2023/06/07 11:11:00;;;;;;;5.40;2.70;;;;;;;28.47;28.47;100940.32;109270;1252;64892;-58
2023/06/07 11:13:43;;;;;;;5.80;2.50;;;;;;;28.55;28.15;100933.73;109209;1254;60121;-58
2023/06/07 11:16:31;;;;;;;4.60;2.10;;;;;;;28.66;27.35;100932.94;109297;1254;62426;-58
2023/06/07 11:19:11;;;;;;;8.50;2.50;;;;;;;28.70;27.91;100935.92;109183;1253;58748;-59
2023/06/07 11:21:54;;;;;;;7.50;2.60;;;;;;;28.73;27.91;100933.36;109241;1254;58372;-60
2023/06/07 11:24:21;;;;;;;5.90;2.50;;;;;;;28.75;27.25;100931.35;109278;1253;64858;-59
2023/06/07 11:26:50;;;;;;;8.90;2.60;;;;;;;28.76;26.59;100930.14;109290;1253;60272;-58